sensor_id;sensor_type;location;lat;lon;timestamp;pressure;altitude;pressure_sealevel;temperature;humidity
26320;BME280;14024;52.226;5.200;2024-02-15T00:01:55;101636.44;;;11.71;100.00
26320;BME280;14024;52.226;5.200;2024-02-15T00:04:20;101640.88;;;11.70;100.00
26320;BME280;14024;52.226;5.200;2024-02-15T00:06:45;101630.28;;;11.70;100.00
26320;BME280;14024;52.226;5.200;2024-02-15T00:09:11;101638.25;;;11.70;100.00
26320;BME280;14024;52.226;5.200;2024-02-15T00:11:36;101639.94;;;11.71;100.00
26320;BME280;14024;52.226;5.200;2024-02-15T00:14:01;101640.03;;;11.70;100.00
26320;BME280;14024;52.226;5.200;2024-02-15T00:16:27;101633.03;;;11.67;100.00
26320;BME280;14024;52.226;5.200;2024-02-15T00:18:53;101632.97;;;11.69;100.00
26320;BME280;14024;52.226;5.200;2024-02-15T00:21:20;101641.88;;;11.68;100.00
26320;BME280;14024;52.226;5.200;2024-02-15T00:23:46;101626.03;;;11.66;100.00
26320;BME280;14024;52.226;5.200;2024-02-15T00:26:12;101624.19;;;11.67;100.00
26320;BME280;14024;52.226;5.200;2024-02-15T00:28:37;101632.16;;;11.67;100.00
26320;BME280;14024;52.226;5.200;2024-02-15T00:31:03;101634.00;;;11.66;100.00
26320;BME280;14024;52.226;5.200;2024-02-15T00:33:29;101633.03;;;11.67;100.00
26320;BME280;14024;52.226;5.200;2024-02-15T00:35:54;101630.38;;;11.67;100.00
26320;BME280;14024;52.226;5.200;2024-02-15T00:38:19;101630.38;;;11.67;100.00
26320;BME280;14024;52.226;5.200;2024-02-15T00:40:45;101630.38;;;11.67;100.00
26320;BME280;14024;52.226;5.200;2024-02-15T00:43:11;101619.75;;;11.67;100.00
26320;BME280;14024;52.226;5.200;2024-02-15T00:45:36;101622.50;;;11.66;100.00
26320;BME280;14024;52.226;5.200;2024-02-15T00:48:01;101618.88;;;11.67;100.00
26320;BME280;14024;52.226;5.200;2024-02-15T00:50:27;101618.88;;;11.67;100.00
26320;BME280;14024;52.226;5.200;2024-02-15T00:52:52;101619.75;;;11.67;100.00
26320;BME280;14024;52.226;5.200;2024-02-15T00:55:17;101612.75;;;11.66;100.00
26320;BME280;14024;52.226;5.200;2024-02-15T00:57:44;101623.28;;;11.68;100.00
26320;BME280;14024;52.226;5.200;2024-02-15T01:00:09;101610.81;;;11.70;100.00
26320;BME280;14024;52.226;5.200;2024-02-15T01:02:35;101612.59;;;11.69;100.00
26320;BME280;14024;52.226;5.200;2024-02-15T01:05:01;101605.56;;;11.68;100.00
26320;BME280;14024;52.226;5.200;2024-02-15T01:07:26;101612.59;;;11.69;100.00
26320;BME280;14024;52.226;5.200;2024-02-15T01:09:52;101609.09;;;11.69;100.00
26320;BME280;14024;52.226;5.200;2024-02-15T01:12:17;101612.59;;;11.69;100.00
26320;BME280;14024;52.226;5.200;2024-02-15T01:14:43;101612.59;;;11.69;100.00
26320;BME280;14024;52.226;5.200;2024-02-15T01:17:09;101601.94;;;11.71;100.00
26320;BME280;14024;52.226;5.200;2024-02-15T01:19:36;101598.41;;;11.70;100.00
26320;BME280;14024;52.226;5.200;2024-02-15T01:22:01;101601.13;;;11.69;100.00
26320;BME280;14024;52.226;5.200;2024-02-15T01:24:27;101609.91;;;11.71;100.00
26320;BME280;14024;52.226;5.200;2024-02-15T01:26:54;101604.59;;;11.71;100.00
26320;BME280;14024;52.226;5.200;2024-02-15T01:29:20;101605.41;;;11.71;100.00
26320;BME280;14024;52.226;5.200;2024-02-15T01:31:45;101603.63;;;11.72;100.00
26320;BME280;14024;52.226;5.200;2024-02-15T01:34:11;101599.22;;;11.72;100.00
26320;BME280;14024;52.226;5.200;2024-02-15T01:36:36;101600.94;;;11.73;100.00
26320;BME280;14024;52.226;5.200;2024-02-15T01:39:01;101598.28;;;11.73;100.00
26320;BME280;14024;52.226;5.200;2024-02-15T01:41:27;101600.94;;;11.73;100.00
26320;BME280;14024;52.226;5.200;2024-02-15T01:43:52;101599.09;;;11.75;100.00
26320;BME280;14024;52.226;5.200;2024-02-15T01:46:19;101591.00;;;11.78;100.00
26320;BME280;14024;52.226;5.200;2024-02-15T01:48:46;101587.41;;;11.79;100.00
26320;BME280;14024;52.226;5.200;2024-02-15T01:51:12;101592.59;;;11.82;100.00
26320;BME280;14024;52.226;5.200;2024-02-15T01:53:41;101594.31;;;11.83;100.00
26320;BME280;14024;52.226;5.200;2024-02-15T01:56:07;101590.69;;;11.84;100.00
26320;BME280;14024;52.226;5.200;2024-02-15T01:58:33;101580.94;;;11.85;100.00
26320;BME280;14024;52.226;5.200;2024-02-15T02:01:00;101577.41;;;11.84;100.00
26320;BME280;14024;52.226;5.200;2024-02-15T02:03:26;101575.63;;;11.85;100.00
26320;BME280;14024;52.226;5.200;2024-02-15T02:05:52;101575.63;;;11.85;100.00
26320;BME280;14024;52.226;5.200;2024-02-15T02:08:18;101562.28;;;11.86;100.00
26320;BME280;14024;52.226;5.200;2024-02-15T02:10:43;101573.84;;;11.85;100.00
26320;BME280;14024;52.226;5.200;2024-02-15T02:13:11;101576.50;;;11.85;100.00
26320;BME280;14024;52.226;5.200;2024-02-15T02:15:36;101577.38;;;11.86;100.00
26320;BME280;14024;52.226;5.200;2024-02-15T02:18:03;101577.38;;;11.86;100.00
26320;BME280;14024;52.226;5.200;2024-02-15T02:20:32;101570.31;;;11.85;100.00
26320;BME280;14024;52.226;5.200;2024-02-15T02:23:05;101569.34;;;11.87;100.00
26320;BME280;14024;52.226;5.200;2024-02-15T02:25:32;101564.09;;;11.86;100.00
26320;BME280;14024;52.226;5.200;2024-02-15T02:27:59;101560.56;;;11.85;100.00
26320;BME280;14024;52.226;5.200;2024-02-15T02:30:24;101562.28;;;11.86;100.00
26320;BME280;14024;52.226;5.200;2024-02-15T02:32:54;101571.19;;;11.85;100.00
26320;BME280;14024;52.226;5.200;2024-02-15T02:35:20;101567.59;;;11.86;100.00
26320;BME280;14024;52.226;5.200;2024-02-15T02:37:45;101556.13;;;11.86;100.00
26320;BME280;14024;52.226;5.200;2024-02-15T02:40:11;101558.00;;;11.84;100.00
26320;BME280;14024;52.226;5.200;2024-02-15T02:42:55;101564.94;;;11.86;100.00
26320;BME280;14024;52.226;5.200;2024-02-15T02:45:22;101552.53;;;11.87;100.00
26320;BME280;14024;52.226;5.200;2024-02-15T02:47:48;101560.44;;;11.88;100.00
26320;BME280;14024;52.226;5.200;2024-02-15T02:50:14;101553.41;;;11.87;100.00
26320;BME280;14024;52.226;5.200;2024-02-15T02:52:40;101552.53;;;11.87;100.00
26320;BME280;14024;52.226;5.200;2024-02-15T02:55:06;101554.25;;;11.88;100.00
26320;BME280;14024;52.226;5.200;2024-02-15T02:57:35;101549.94;;;11.85;100.00
26320;BME280;14024;52.226;5.200;2024-02-15T03:00:04;101547.28;;;11.85;100.00
26320;BME280;14024;52.226;5.200;2024-02-15T03:02:34;101549.94;;;11.85;100.00
26320;BME280;14024;52.226;5.200;2024-02-15T03:05:01;101552.59;;;11.85;100.00
26320;BME280;14024;52.226;5.200;2024-02-15T03:07:27;101546.34;;;11.86;100.00
26320;BME280;14024;52.226;5.200;2024-02-15T03:09:52;101551.59;;;11.88;100.00
26320;BME280;14024;52.226;5.200;2024-02-15T03:12:17;101542.78;;;11.87;100.00
26320;BME280;14024;52.226;5.200;2024-02-15T03:14:43;101543.66;;;11.88;100.00
26320;BME280;14024;52.226;5.200;2024-02-15T03:17:09;101540.03;;;11.89;100.00
26320;BME280;14024;52.226;5.200;2024-02-15T03:19:34;101550.75;;;11.87;100.00
26320;BME280;14024;52.226;5.200;2024-02-15T03:22:00;101547.16;;;11.88;100.00
26320;BME280;14024;52.226;5.200;2024-02-15T03:24:25;101549.00;;;11.86;100.00
26320;BME280;14024;52.226;5.200;2024-02-15T03:26:50;101556.97;;;11.86;100.00
26320;BME280;14024;52.226;5.200;2024-02-15T03:29:17;101564.94;;;11.86;100.00
26320;BME280;14024;52.226;5.200;2024-02-15T03:31:42;101558.72;;;11.87;100.00
26320;BME280;14024;52.226;5.200;2024-02-15T03:34:08;101548.09;;;11.87;100.00
26320;BME280;14024;52.226;5.200;2024-02-15T03:36:36;101552.59;;;11.85;100.00
26320;BME280;14024;52.226;5.200;2024-02-15T03:39:02;101561.44;;;11.86;100.00
26320;BME280;14024;52.226;5.200;2024-02-15T03:41:28;101557.13;;;11.83;100.00
26320;BME280;14024;52.226;5.200;2024-02-15T03:43:58;101551.72;;;11.85;100.00
26320;BME280;14024;52.226;5.200;2024-02-15T03:46:31;101540.19;;;11.86;100.00
26320;BME280;14024;52.226;5.200;2024-02-15T03:48:57;101535.88;;;11.83;100.00
26320;BME280;14024;52.226;5.200;2024-02-15T03:51:22;101534.16;;;11.82;100.00
26320;BME280;14024;52.226;5.200;2024-02-15T03:53:50;101545.63;;;11.83;100.00
26320;BME280;14024;52.226;5.200;2024-02-15T03:56:17;101541.19;;;11.83;100.00
26320;BME280;14024;52.226;5.200;2024-02-15T03:58:43;101537.59;;;11.84;100.00
26320;BME280;14024;52.226;5.200;2024-02-15T04:01:08;101542.06;;;11.84;100.00
26320;BME280;14024;52.226;5.200;2024-02-15T04:03:35;101535.88;;;11.83;100.00
26320;BME280;14024;52.226;5.200;2024-02-15T04:06:01;101542.88;;;11.84;100.00
26320;BME280;14024;52.226;5.200;2024-02-15T04:08:27;101540.31;;;11.83;100.00
26320;BME280;14024;52.226;5.200;2024-02-15T04:10:52;101542.88;;;11.84;100.00
26320;BME280;14024;52.226;5.200;2024-02-15T04:13:18;101532.25;;;11.84;100.00
26320;BME280;14024;52.226;5.200;2024-02-15T04:15:44;101534.16;;;11.82;100.00
26320;BME280;14024;52.226;5.200;2024-02-15T04:18:12;101532.25;;;11.84;100.00
26320;BME280;14024;52.226;5.200;2024-02-15T04:20:39;101533.22;;;11.83;100.00
26320;BME280;14024;52.226;5.200;2024-02-15T04:23:09;101528.84;;;11.82;100.00
26320;BME280;14024;52.226;5.200;2024-02-15T04:25:35;101532.41;;;11.81;100.00
26320;BME280;14024;52.226;5.200;2024-02-15T04:28:00;101531.50;;;11.82;100.00
26320;BME280;14024;52.226;5.200;2024-02-15T04:30:28;101534.16;;;11.82;100.00
26320;BME280;14024;52.226;5.200;2024-02-15T04:32:54;101527.16;;;11.80;100.00
26320;BME280;14024;52.226;5.200;2024-02-15T04:35:19;101519.19;;;11.80;100.00
26320;BME280;14024;52.226;5.200;2024-02-15T04:37:44;101522.66;;;11.82;100.00
26320;BME280;14024;52.226;5.200;2024-02-15T04:40:12;101524.44;;;11.81;100.00
26320;BME280;14024;52.226;5.200;2024-02-15T04:42:38;101520.88;;;11.82;100.00
26320;BME280;14024;52.226;5.200;2024-02-15T04:45:06;101517.19;;;11.85;100.00
26320;BME280;14024;52.226;5.200;2024-02-15T04:47:35;101512.91;;;11.82;100.00
26320;BME280;14024;52.226;5.200;2024-02-15T04:50:01;101513.81;;;11.81;100.00
26320;BME280;14024;52.226;5.200;2024-02-15T04:52:27;101511.97;;;11.83;100.00
26320;BME280;14024;52.226;5.200;2024-02-15T04:54:53;101511.97;;;11.83;100.00
26320;BME280;14024;52.226;5.200;2024-02-15T04:57:20;101510.31;;;11.81;100.00
26320;BME280;14024;52.226;5.200;2024-02-15T04:59:45;101513.81;;;11.81;100.00
26320;BME280;14024;52.226;5.200;2024-02-15T05:02:13;101510.38;;;11.79;100.00
26320;BME280;14024;52.226;5.200;2024-02-15T05:04:38;101518.38;;;11.79;100.00
26320;BME280;14024;52.226;5.200;2024-02-15T05:07:07;101514.69;;;11.82;100.00
26320;BME280;14024;52.226;5.200;2024-02-15T05:09:33;101516.63;;;11.78;100.00
26320;BME280;14024;52.226;5.200;2024-02-15T05:12:00;101511.22;;;11.80;100.00
26320;BME280;14024;52.226;5.200;2024-02-15T05:14:27;101518.38;;;11.79;100.00
26320;BME280;14024;52.226;5.200;2024-02-15T05:16:52;101518.38;;;11.79;100.00
26320;BME280;14024;52.226;5.200;2024-02-15T05:19:18;101515.75;;;11.78;100.00
26320;BME280;14024;52.226;5.200;2024-02-15T05:21:44;101514.91;;;11.77;100.00
26320;BME280;14024;52.226;5.200;2024-02-15T05:24:15;101513.16;;;11.76;100.00
26320;BME280;14024;52.226;5.200;2024-02-15T05:26:43;101503.41;;;11.77;100.00
26320;BME280;14024;52.226;5.200;2024-02-15T05:29:12;101486.59;;;11.76;100.00
26320;BME280;14024;52.226;5.200;2024-02-15T05:31:37;101479.44;;;11.78;100.00
26320;BME280;14024;52.226;5.200;2024-02-15T05:34:04;101467.97;;;11.78;100.00
26320;BME280;14024;52.226;5.200;2024-02-15T05:36:29;101451.16;;;11.77;100.00
26320;BME280;14024;52.226;5.200;2024-02-15T05:38:55;101437.88;;;11.77;100.00
26320;BME280;14024;52.226;5.200;2024-02-15T05:41:22;101438.69;;;11.79;100.00
26320;BME280;14024;52.226;5.200;2024-02-15T05:43:48;101446.66;;;11.79;100.00
26320;BME280;14024;52.226;5.200;2024-02-15T05:46:13;101444.81;;;11.80;100.00
26320;BME280;14024;52.226;5.200;2024-02-15T05:48:39;101457.34;;;11.78;100.00
26320;BME280;14024;52.226;5.200;2024-02-15T05:51:05;101452.88;;;11.78;100.00
26320;BME280;14024;52.226;5.200;2024-02-15T05:53:31;101450.22;;;11.78;100.00
26320;BME280;14024;52.226;5.200;2024-02-15T05:56:07;101454.47;;;11.82;100.00
26320;BME280;14024;52.226;5.200;2024-02-15T05:58:34;101452.88;;;11.78;100.00
26320;BME280;14024;52.226;5.200;2024-02-15T06:01:00;101451.16;;;11.77;100.00
26320;BME280;14024;52.226;5.200;2024-02-15T06:03:30;101453.75;;;11.79;100.00
26320;BME280;14024;52.226;5.200;2024-02-15T06:05:57;101456.31;;;11.80;100.00
26320;BME280;14024;52.226;5.200;2024-02-15T06:08:26;101460.84;;;11.78;100.00
26320;BME280;14024;52.226;5.200;2024-02-15T06:10:52;101458.97;;;11.80;100.00
26320;BME280;14024;52.226;5.200;2024-02-15T06:13:19;101456.31;;;11.80;100.00
26320;BME280;14024;52.226;5.200;2024-02-15T06:15:44;101459.84;;;11.81;100.00
26320;BME280;14024;52.226;5.200;2024-02-15T06:18:12;101464.38;;;11.79;100.00
26320;BME280;14024;52.226;5.200;2024-02-15T06:20:39;101471.31;;;11.81;100.00
26320;BME280;14024;52.226;5.200;2024-02-15T06:23:05;101461.63;;;11.80;100.00
26320;BME280;14024;52.226;5.200;2024-02-15T06:25:32;101466.94;;;11.80;100.00
26320;BME280;14024;52.226;5.200;2024-02-15T06:27:57;101457.19;;;11.81;100.00
26320;BME280;14024;52.226;5.200;2024-02-15T06:30:27;101450.94;;;11.82;100.00
26320;BME280;14024;52.226;5.200;2024-02-15T06:33:11;101443.13;;;11.79;100.00
26320;BME280;14024;52.226;5.200;2024-02-15T06:35:55;101447.41;;;11.81;100.00
26320;BME280;14024;52.226;5.200;2024-02-15T06:38:39;101458.06;;;11.81;100.00
26320;BME280;14024;52.226;5.200;2024-02-15T06:41:22;101458.00;;;11.83;100.00
26320;BME280;14024;52.226;5.200;2024-02-15T06:43:49;101446.50;;;11.82;100.00
26320;BME280;14024;52.226;5.200;2024-02-15T06:46:15;101427.84;;;11.84;100.00
26320;BME280;14024;52.226;5.200;2024-02-15T06:48:44;101429.63;;;11.83;100.00
26320;BME280;14024;52.226;5.200;2024-02-15T06:51:14;101437.59;;;11.83;100.00
26320;BME280;14024;52.226;5.200;2024-02-15T06:53:41;101452.59;;;11.84;100.00
26320;BME280;14024;52.226;5.200;2024-02-15T06:56:09;101443.69;;;11.85;100.00
26320;BME280;14024;52.226;5.200;2024-02-15T06:58:38;101446.44;;;11.84;100.00
26320;BME280;14024;52.226;5.200;2024-02-15T07:01:05;101450.88;;;11.83;100.00
26320;BME280;14024;52.226;5.200;2024-02-15T07:03:31;101459.56;;;11.87;100.00
26320;BME280;14024;52.226;5.200;2024-02-15T07:05:57;101468.31;;;11.89;100.00
26320;BME280;14024;52.226;5.200;2024-02-15T07:08:23;101467.59;;;11.85;100.00
26320;BME280;14024;52.226;5.200;2024-02-15T07:10:50;101466.63;;;11.88;100.00
26320;BME280;14024;52.226;5.200;2024-02-15T07:13:16;101462.22;;;11.87;100.00
26320;BME280;14024;52.226;5.200;2024-02-15T07:15:42;101460.50;;;11.86;100.00
26320;BME280;14024;52.226;5.200;2024-02-15T07:18:09;101465.81;;;11.86;100.00
26320;BME280;14024;52.226;5.200;2024-02-15T07:20:35;101463.09;;;11.87;100.00
26320;BME280;14024;52.226;5.200;2024-02-15T07:23:01;101467.53;;;11.87;100.00
26320;BME280;14024;52.226;5.200;2024-02-15T07:25:26;101485.25;;;11.86;100.00
26320;BME280;14024;52.226;5.200;2024-02-15T07:27:52;101491.50;;;11.85;100.00
26320;BME280;14024;52.226;5.200;2024-02-15T07:30:22;101498.53;;;11.86;100.00
26320;BME280;14024;52.226;5.200;2024-02-15T07:32:48;101500.28;;;11.87;100.00
26320;BME280;14024;52.226;5.200;2024-02-15T07:35:13;101493.22;;;11.86;100.00
26320;BME280;14024;52.226;5.200;2024-02-15T07:37:51;101498.53;;;11.86;100.00
26320;BME280;14024;52.226;5.200;2024-02-15T07:40:16;101480.00;;;11.85;100.00
26320;BME280;14024;52.226;5.200;2024-02-15T07:42:42;101487.91;;;11.86;100.00
26320;BME280;14024;52.226;5.200;2024-02-15T07:45:07;101488.06;;;11.83;100.00
26320;BME280;14024;52.226;5.200;2024-02-15T07:47:33;101483.63;;;11.84;100.00
26320;BME280;14024;52.226;5.200;2024-02-15T07:49:58;101465.88;;;11.84;100.00
26320;BME280;14024;52.226;5.200;2024-02-15T07:52:24;101452.59;;;11.84;100.00
26320;BME280;14024;52.226;5.200;2024-02-15T07:54:49;101455.19;;;11.86;100.00
26320;BME280;14024;52.226;5.200;2024-02-15T07:57:14;101462.28;;;11.85;100.00
26320;BME280;14024;52.226;5.200;2024-02-15T07:59:40;101477.28;;;11.86;100.00
26320;BME280;14024;52.226;5.200;2024-02-15T08:02:05;101470.19;;;11.87;100.00
26320;BME280;14024;52.226;5.200;2024-02-15T08:04:30;101477.28;;;11.86;100.00
26320;BME280;14024;52.226;5.200;2024-02-15T08:06:56;101470.13;;;11.88;100.00
26320;BME280;14024;52.226;5.200;2024-02-15T08:09:21;101457.78;;;11.87;100.00
26320;BME280;14024;52.226;5.200;2024-02-15T08:11:52;101450.72;;;11.86;100.00
26320;BME280;14024;52.226;5.200;2024-02-15T08:14:17;101463.88;;;11.89;100.00
26320;BME280;14024;52.226;5.200;2024-02-15T08:16:42;101462.06;;;11.90;100.00
26320;BME280;14024;52.226;5.200;2024-02-15T08:19:08;101460.34;;;11.89;100.00
26320;BME280;14024;52.226;5.200;2024-02-15T08:21:34;101456.84;;;11.88;100.00
26320;BME280;14024;52.226;5.200;2024-02-15T08:24:02;101464.66;;;11.91;100.00
26320;BME280;14024;52.226;5.200;2024-02-15T08:26:38;101463.00;;;11.89;100.00
26320;BME280;14024;52.226;5.200;2024-02-15T08:29:04;101455.03;;;11.89;100.00
26320;BME280;14024;52.226;5.200;2024-02-15T08:31:31;101449.72;;;11.89;100.00
26320;BME280;14024;52.226;5.200;2024-02-15T08:33:57;101446.22;;;11.88;100.00
26320;BME280;14024;52.226;5.200;2024-02-15T08:36:27;101437.19;;;11.92;100.00
26320;BME280;14024;52.226;5.200;2024-02-15T08:38:52;101429.22;;;11.92;100.00
26320;BME280;14024;52.226;5.200;2024-02-15T08:41:17;101431.66;;;11.97;100.00
26320;BME280;14024;52.226;5.200;2024-02-15T08:43:46;101427.19;;;11.97;100.00
26320;BME280;14024;52.226;5.200;2024-02-15T08:46:13;101422.66;;;11.99;100.00
26320;BME280;14024;52.226;5.200;2024-02-15T08:48:39;101423.47;;;12.01;100.00
26320;BME280;14024;52.226;5.200;2024-02-15T08:51:05;101425.16;;;12.02;100.00
26320;BME280;14024;52.226;5.200;2024-02-15T08:53:34;101419.00;;;12.02;100.00
26320;BME280;14024;52.226;5.200;2024-02-15T08:56:02;101423.47;;;12.01;100.00
26320;BME280;14024;52.226;5.200;2024-02-15T08:58:28;101428.78;;;12.01;100.00
26320;BME280;14024;52.226;5.200;2024-02-15T09:00:55;101425.31;;;11.99;100.00
26320;BME280;14024;52.226;5.200;2024-02-15T09:03:20;101424.38;;;12.00;100.00
26320;BME280;14024;52.226;5.200;2024-02-15T09:05:46;101411.97;;;12.01;100.00
26320;BME280;14024;52.226;5.200;2024-02-15T09:08:11;101432.28;;;12.02;100.00
26320;BME280;14024;52.226;5.200;2024-02-15T09:10:36;101420.88;;;12.00;100.00
26320;BME280;14024;52.226;5.200;2024-02-15T09:13:04;101422.66;;;11.99;100.00
26320;BME280;14024;52.226;5.200;2024-02-15T09:15:31;101432.41;;;11.99;100.00
26320;BME280;14024;52.226;5.200;2024-02-15T09:17:56;101437.69;;;12.00;100.00
26320;BME280;14024;52.226;5.200;2024-02-15T09:20:23;101425.25;;;12.01;100.00
26320;BME280;14024;52.226;5.200;2024-02-15T09:22:54;101432.34;;;12.00;100.00
26320;BME280;14024;52.226;5.200;2024-02-15T09:25:20;101437.47;;;12.05;100.00
26320;BME280;14024;52.226;5.200;2024-02-15T09:27:49;101437.41;;;12.06;100.00
26320;BME280;14024;52.226;5.200;2024-02-15T09:30:15;101439.09;;;12.07;100.00
26320;BME280;14024;52.226;5.200;2024-02-15T09:32:41;101431.06;;;12.09;100.00
26320;BME280;14024;52.226;5.200;2024-02-15T09:35:08;101436.09;;;12.15;100.00
26320;BME280;14024;52.226;5.200;2024-02-15T09:37:38;101435.06;;;12.18;100.00
26320;BME280;14024;52.226;5.200;2024-02-15T09:40:10;101442.28;;;12.16;100.00
26320;BME280;14024;52.226;5.200;2024-02-15T09:42:37;101443.97;;;12.17;100.00
26320;BME280;14024;52.226;5.200;2024-02-15T09:45:04;101445.00;;;12.14;100.00
26320;BME280;14024;52.226;5.200;2024-02-15T09:47:34;101437.66;;;12.19;100.00
26320;BME280;14024;52.226;5.200;2024-02-15T09:50:01;101450.84;;;12.21;100.00
26320;BME280;14024;52.226;5.200;2024-02-15T09:52:29;101451.72;;;12.21;100.00
26320;BME280;14024;52.226;5.200;2024-02-15T09:54:57;101434.69;;;12.25;100.00
26320;BME280;14024;52.226;5.200;2024-02-15T09:57:22;101434.78;;;12.24;100.00
26320;BME280;14024;52.226;5.200;2024-02-15T09:59:48;101428.50;;;12.25;100.00
26320;BME280;14024;52.226;5.200;2024-02-15T10:02:14;101436.13;;;12.32;100.00
26320;BME280;14024;52.226;5.200;2024-02-15T10:04:39;101428.28;;;12.29;100.00
26320;BME280;14024;52.226;5.200;2024-02-15T10:07:05;101428.28;;;12.29;100.00
26320;BME280;14024;52.226;5.200;2024-02-15T10:09:31;101425.50;;;12.32;100.00
26320;BME280;14024;52.226;5.200;2024-02-15T10:11:58;101428.81;;;12.37;100.00
26320;BME280;14024;52.226;5.200;2024-02-15T10:14:25;101437.00;;;12.33;100.00
26320;BME280;14024;52.226;5.200;2024-02-15T10:16:53;101440.22;;;12.39;100.00
26320;BME280;14024;52.226;5.200;2024-02-15T10:19:20;101437.66;;;12.38;100.00
26320;BME280;14024;52.226;5.200;2024-02-15T10:21:51;101444.59;;;12.40;100.00
26320;BME280;14024;52.226;5.200;2024-02-15T10:24:18;101445.47;;;12.41;100.00
26320;BME280;14024;52.226;5.200;2024-02-15T10:26:48;101444.16;;;12.49;100.00
26320;BME280;14024;52.226;5.200;2024-02-15T10:29:13;101436.75;;;12.56;100.00
26320;BME280;14024;52.226;5.200;2024-02-15T10:31:52;101437.81;;;12.52;100.00
26320;BME280;14024;52.226;5.200;2024-02-15T10:34:18;101434.00;;;12.58;100.00
26320;BME280;14024;52.226;5.200;2024-02-15T10:36:46;101439.00;;;12.64;100.00
26320;BME280;14024;52.226;5.200;2024-02-15T10:39:16;101442.22;;;12.70;100.00
26320;BME280;14024;52.226;5.200;2024-02-15T10:41:49;101444.56;;;12.76;100.00
26320;BME280;14024;52.226;5.200;2024-02-15T10:44:19;101444.41;;;12.79;100.00
26320;BME280;14024;52.226;5.200;2024-02-15T10:46:49;101423.63;;;12.87;100.00
26320;BME280;14024;52.226;5.200;2024-02-15T10:49:21;101421.97;;;12.85;100.00
26320;BME280;14024;52.226;5.200;2024-02-15T10:51:56;101425.41;;;12.87;100.00
26320;BME280;14024;52.226;5.200;2024-02-15T10:57:03;101426.75;;;12.78;100.00
26320;BME280;14024;52.226;5.200;2024-02-15T10:59:32;101429.25;;;12.81;100.00
26320;BME280;14024;52.226;5.200;2024-02-15T11:01:59;101429.25;;;12.81;100.00
26320;BME280;14024;52.226;5.200;2024-02-15T11:04:26;101427.28;;;12.85;100.00
26320;BME280;14024;52.226;5.200;2024-02-15T11:06:58;101437.16;;;12.83;100.00
26320;BME280;14024;52.226;5.200;2024-02-15T11:09:25;101433.63;;;12.82;100.00
26320;BME280;14024;52.226;5.200;2024-02-15T11:11:54;101427.22;;;12.86;100.00
26320;BME280;14024;52.226;5.200;2024-02-15T11:14:25;101428.31;;;12.82;100.00
26320;BME280;14024;52.226;5.200;2024-02-15T11:16:50;101424.69;;;12.83;100.00
26320;BME280;14024;52.226;5.200;2024-02-15T11:19:46;101421.34;;;12.80;100.00
26320;BME280;14024;52.226;5.200;2024-02-15T11:22:13;101421.03;;;12.86;100.00
26320;BME280;14024;52.226;5.200;2024-02-15T11:24:48;101409.47;;;12.87;100.00
26320;BME280;14024;52.226;5.200;2024-02-15T11:27:24;101411.03;;;12.91;100.00
26320;BME280;14024;52.226;5.200;2024-02-15T11:32:43;101409.00;;;12.96;100.00
26320;BME280;14024;52.226;5.200;2024-02-15T11:35:13;101412.97;;;13.05;100.00
26320;BME280;14024;52.226;5.200;2024-02-15T11:43:01;101400.84;;;13.16;100.00
26320;BME280;14024;52.226;5.200;2024-02-15T11:45:28;101393.47;;;13.21;100.00
26320;BME280;14024;52.226;5.200;2024-02-15T11:48:08;101386.28;;;13.23;100.00
26320;BME280;14024;52.226;5.200;2024-02-15T11:50:37;101380.38;;;13.34;100.00
26320;BME280;14024;52.226;5.200;2024-02-15T11:53:04;101377.06;;;13.46;100.00
26320;BME280;14024;52.226;5.200;2024-02-15T11:55:36;101378.94;;;13.44;100.00
26320;BME280;14024;52.226;5.200;2024-02-15T11:58:04;101380.31;;;13.51;100.00
26320;BME280;14024;52.226;5.200;2024-02-15T12:00:32;101370.78;;;13.47;100.00
26320;BME280;14024;52.226;5.200;2024-02-15T12:03:17;101381.53;;;13.46;100.00
26320;BME280;14024;52.226;5.200;2024-02-15T12:06:01;101372.06;;;13.56;100.00
26320;BME280;14024;52.226;5.200;2024-02-15T12:08:52;101369.34;;;13.57;100.00
26320;BME280;14024;52.226;5.200;2024-02-15T12:11:36;101363.50;;;13.66;100.00
26320;BME280;14024;52.226;5.200;2024-02-15T12:14:20;101351.28;;;13.78;100.00
26320;BME280;14024;52.226;5.200;2024-02-15T12:17:10;101340.31;;;13.84;100.00
26320;BME280;14024;52.226;5.200;2024-02-15T12:19:55;101340.22;;;13.85;100.00
26320;BME280;14024;52.226;5.200;2024-02-15T12:22:24;101339.34;;;14.01;100.00
26320;BME280;14024;52.226;5.200;2024-02-15T12:25:02;101336.00;;;14.13;100.00
26320;BME280;14024;52.226;5.200;2024-02-15T12:27:42;101339.94;;;14.06;100.00
26320;BME280;14024;52.226;5.200;2024-02-15T12:30:16;101337.41;;;14.18;100.00
26320;BME280;14024;52.226;5.200;2024-02-15T12:32:46;101331.88;;;14.07;100.00
26320;BME280;14024;52.226;5.200;2024-02-15T12:35:14;101330.66;;;14.13;100.00
26320;BME280;14024;52.226;5.200;2024-02-15T12:37:48;101333.06;;;14.17;100.00
26320;BME280;14024;52.226;5.200;2024-02-15T12:40:16;101331.81;;;14.23;100.00
26320;BME280;14024;52.226;5.200;2024-02-15T12:42:46;101317.88;;;14.34;100.00
26320;BME280;14024;52.226;5.200;2024-02-15T12:45:20;101320.13;;;14.41;100.00
26320;BME280;14024;52.226;5.200;2024-02-15T12:47:52;101321.88;;;14.56;100.00
26320;BME280;14024;52.226;5.200;2024-02-15T12:50:22;101312.00;;;14.58;100.00
26320;BME280;14024;52.226;5.200;2024-02-15T12:52:49;101312.00;;;14.72;100.00
26320;BME280;14024;52.226;5.200;2024-02-15T12:55:19;101309.06;;;14.77;100.00